Freeport, MN (56331)

5:54 AM CDT on May 22, 2015 (GMT -0500)
KMNGREYE2 | | Change Station
CLOSE
Current Station
Personal Weather Station
Location: Grey Eagle, MN
Elevation: 1214 ft
Nearby Weather Stations

Elev 1214 ft 45.83 °N, 94.75 °W | Updated 9 minutes ago

Clear
Clear
40.3 °F
Feels Like 40 °F
N
0.0
Wind Variable Wind from East

Today
High -- | Low -- °F
--% Chance of Precip.
Yesterday
High -- | Low -- °F
Precip. -- in
5:40 AM 8:50 PM
Waxing Crescent, 20% visible
Pressure 30.18 in
Visibility 10.0 miles
Clouds Clear
Windchill 40 °F
Dew Point 38 °F
Humidity 91%
Rainfall 0.00 in
Snow Depth Not available.
UV 0 out of 12
Pollen 8.80 out of 12
Air Quality Not available.
Flu Activity Sporadic
METAR KD39 221035Z AUTO 00000KT 10SM CLR 04/04 A3018 RMK AO2 T00410036

More Conditions Fewer Conditions

Pressure 30.18 in
Visibility 10.0 miles
Clouds Clear
Windchill 40 °F
Dew Point 38 °F
Humidity 91%
Rainfall 0.00 in
Snow Depth Not available.
UV 0 out of 12
Pollen 8.80 out of 12
Air Quality Not available.
Flu Activity Sporadic
METAR KD39 221035Z AUTO 00000KT 10SM CLR 04/04 A3018 RMK AO2 T00410036

More Conditions Fewer Conditions

10-Day Weather Forecast

Almanac

Astronomy

May. 22, 2015 Rise Set
Actual Time
Civil Twilight
Nautical Twilight
Astronomical Twilight
Moon
Length of Visible Light
Length of Day
Tomorrow will be .
, % of the Moon is Illuminated

Today's Extremes

State Highs State Lows

Community

WunderPhotos

Upload Photos

1,823,200 photos uploaded!

WunderBlogs® & News

Nearby

Air Quality

  Air Quality AQ Index Pollutant
Not available.

Snow Depth

Station Depth Elevation

Earthquake Activity

City Distance Mag. Time & Date
Minimum magnitude displayed is 2.5.

Coastal Water Temperatures

Place Temperature

Stations

Nearby Weather Stations

Station Location Temp. Windchill Dew Point Humidity Wind Precip. Elev Updated Type